Terminal Aerodrome Forecast
Issued by NWS

Home | Current Version | Previous Version | Text Only | Print | Product List | Glossary On
Versions: 1 2 3 4 5 6 7 8 9 10 11 12 13 14 15 16
000
FTUS44 KLZK 021700
TAFPBF
TAF
KPBF 021736Z 0218/0318 24010G20KT P6SM SCT050 OVC250
     FM030200 23008KT P6SM SCT040 BKN250
     FM030600 27005KT P6SM VCTS SCT040CB BKN080
     FM031400 26010G20KT P6SM SCT030 BKN120=

USA.gov is the U.S. government's official web portal to all federal, state and local government web resources and services.